Time;durP1;ratioP1;P1;durP2;ratioP2;P2;SDS_P1;SDS_P2;PMS_P1;PMS_P2;Temp;Humidity;BMP_temperature;BMP_pressure;BME280_temperature;BME280_humidity;BME280_pressure;Samples;Min_cycle;Max_cycle;Signal;HPM_P1;HPM_P2
2021/06/10 00:00:55;;;;;;;;;;;;;;;25.22;39.14;101585.06;4996581;28;99738;-89
2021/06/10 00:03:22;;;;;;;;;;;;;;;25.49;38.67;101587.28;4971350;28;98112;-90
2021/06/10 00:05:48;;;;;;;;;;;;;;;25.58;38.68;101589.25;4999851;28;96761;-88
2021/06/10 00:08:14;;;;;;;;;;;;;;;25.37;38.91;101580.22;4992881;28;97125;-87
2021/06/10 00:10:43;;;;;;;;;;;;;;;25.47;38.56;101583.84;5002748;28;100027;-90
2021/06/10 00:13:09;;;;;;;;;;;;;;;25.52;37.91;101568.09;5001070;28;98199;-90
2021/06/10 00:15:36;;;;;;;;;;;;;;;25.21;38.84;101569.81;4991137;28;96811;-90
2021/06/10 00:18:03;;;;;;;;;;;;;;;25.37;38.05;101574.81;4995258;28;96691;-90
2021/06/10 00:20:29;;;;;;;;;;;;;;;25.21;38.31;101563.53;4987800;28;99618;-89
2021/06/10 00:22:56;;;;;;;;;;;;;;;24.87;39.56;101565.47;4984327;28;100218;-89
2021/06/10 00:25:23;;;;;;;;;;;;;;;24.96;40.08;101567.44;4983847;28;96807;-89
2021/06/10 00:27:51;;;;;;;;;;;;;;;25.12;39.24;101565.19;4989703;28;97204;-89
2021/06/10 00:30:18;;;;;;;;;;;;;;;24.73;40.07;101549.53;4983207;28;99482;-89
2021/06/10 00:32:44;;;;;;;;;;;;;;;24.65;40.49;101552.88;4994785;28;99649;-89
2021/06/10 00:35:11;;;;;;;;;;;;;;;24.73;40.95;101547.69;4995180;28;96711;-88
2021/06/10 00:37:37;;;;;;;;;;;;;;;24.63;41.45;101550.28;4990300;28;96872;-89
2021/06/10 00:40:06;;;;;;;;;;;;;;;24.38;42.28;101557.81;4994652;28;100703;-89
2021/06/10 00:42:33;;;;;;;;;;;;;;;24.55;42.10;101557.28;4995503;28;101015;-88
2021/06/10 00:45:02;;;;;;;;;;;;;;;24.56;42.44;101548.19;4996701;28;96843;-89
2021/06/10 00:47:28;;;;;;;;;;;;;;;24.72;42.43;101551.38;5001859;28;96901;-88
2021/06/10 00:49:54;;;;;;;;;;;;;;;25.00;41.59;101561.69;4997200;28;101515;-88
2021/06/10 00:52:20;;;;;;;;;;;;;;;24.88;42.23;101559.94;4993628;28;96987;-88
2021/06/10 00:54:48;;;;;;;;;;;;;;;24.64;42.87;101559.25;4989949;28;96796;-88
2021/06/10 00:57:14;;;;;;;;;;;;;;;24.48;43.34;101561.50;4981976;28;96721;-88
2021/06/10 00:59:40;;;;;;;;;;;;;;;24.66;42.91;101561.84;4993906;28;99152;-88
2021/06/10 01:02:15;;;;;;;;;;;;;;;24.70;42.99;101561.44;4985083;28;99716;-87
2021/06/10 01:04:41;;;;;;;;;;;;;;;24.81;43.22;101564.13;5000397;28;96725;-89
2021/06/10 01:07:08;;;;;;;;;;;;;;;24.45;43.31;101561.72;4999487;28;96879;-88
2021/06/10 01:09:37;;;;;;;;;;;;;;;24.42;42.60;101553.88;4997247;28;100591;-88
2021/06/10 01:12:07;;;;;;;;;;;;;;;24.45;42.80;101556.34;4991824;28;96858;-89
2021/06/10 01:14:38;;;;;;;;;;;;;;;24.42;43.80;101554.72;4994415;28;96835;-89
2021/06/10 01:20:04;;;;;;;;;;;;;;;24.31;44.50;101560.13;4998302;28;97365;-90
2021/06/10 01:22:38;;;;;;;;;;;;;;;24.49;44.54;101560.50;4992198;28;99093;-90
2021/06/10 01:25:13;;;;;;;;;;;;;;;24.49;44.62;101553.25;4990465;28;96828;-90
2021/06/10 01:27:45;;;;;;;;;;;;;;;24.59;43.63;101554.22;5000432;28;96807;-90
2021/06/10 01:30:14;;;;;;;;;;;;;;;24.50;43.45;101551.41;5003383;28;96989;-89
2021/06/10 01:32:42;;;;;;;;;;;;;;;24.16;44.62;101543.28;4972591;28;97531;-88
2021/06/10 01:35:12;;;;;;;;;;;;;;;24.15;44.86;101541.59;4996247;28;96574;-90
2021/06/10 01:37:39;;;;;;;;;;;;;;;24.33;43.83;101552.78;4997824;28;96735;-89
2021/06/10 01:40:07;;;;;;;;;;;;;;;24.18;44.32;101551.28;5002643;28;100529;-89
2021/06/10 01:42:36;;;;;;;;;;;;;;;24.42;43.60;101549.31;5002673;28;100003;-89
2021/06/10 01:45:06;;;;;;;;;;;;;;;24.13;43.97;101538.16;5005995;28;96826;-89
2021/06/10 01:47:32;;;;;;;;;;;;;;;24.27;43.49;101541.63;5017688;28;96600;-89
2021/06/10 01:49:59;;;;;;;;;;;;;;;24.13;43.85;101540.84;5007004;28;97903;-89
2021/06/10 01:52:27;;;;;;;;;;;;;;;23.96;45.18;101545.88;4985960;28;98524;-87
2021/06/10 01:54:54;;;;;;;;;;;;;;;23.88;45.35;101543.78;5003564;28;97114;-87
2021/06/10 01:57:20;;;;;;;;;;;;;;;23.80;45.50;101536.28;4977364;28;96592;-89
2021/06/10 01:59:48;;;;;;;;;;;;;;;24.34;44.16;101532.03;5006057;28;100359;-88
2021/06/10 02:02:18;;;;;;;;;;;;;;;24.50;43.62;101525.25;5007784;28;100474;-89
2021/06/10 02:04:44;;;;;;;;;;;;;;;24.63;43.47;101522.41;5002819;28;96831;-89
2021/06/10 02:07:11;;;;;;;;;;;;;;;24.18;44.09;101519.72;4996270;28;96836;-90
2021/06/10 02:09:38;;;;;;;;;;;;;;;24.37;43.62;101521.84;4993571;28;96962;-89
2021/06/10 02:12:06;;;;;;;;;;;;;;;24.14;43.65;101526.38;4998882;28;101078;-91
2021/06/10 02:14:39;;;;;;;;;;;;;;;24.06;44.25;101520.72;5011997;28;96845;-88
2021/06/10 02:17:06;;;;;;;;;;;;;;;24.02;44.93;101516.56;5011011;28;97506;-89
2021/06/10 02:19:35;;;;;;;;;;;;;;;23.91;46.14;101521.94;5011292;28;96924;-86
2021/06/10 02:22:02;;;;;;;;;;;;;;;24.05;45.72;101512.72;5015701;28;98423;-87
2021/06/10 02:24:29;;;;;;;;;;;;;;;24.13;45.30;101519.25;5012006;28;96725;-86
2021/06/10 02:26:55;;;;;;;;;;;;;;;24.35;44.65;101520.25;5014082;28;96832;-86
2021/06/10 02:29:23;;;;;;;;;;;;;;;24.63;43.65;101512.47;5016077;28;97814;-89
2021/06/10 02:31:51;;;;;;;;;;;;;;;24.32;44.28;101515.94;4995779;28;96329;-91
2021/06/10 02:34:20;;;;;;;;;;;;;;;24.12;44.10;101509.44;5171695;22;98468;-87
2021/06/10 02:36:51;;;;;;;;;;;;;;;24.13;43.79;101512.97;4997842;28;96041;-90
2021/06/10 02:39:21;;;;;;;;;;;;;;;24.19;44.41;101515.22;4985942;28;98399;-89
2021/06/10 02:41:53;;;;;;;;;;;;;;;24.22;44.86;101515.81;4992675;28;96903;-91
2021/06/10 02:44:34;;;;;;;;;;;;;;;24.08;44.29;101523.31;4972902;28;96483;-92
2021/06/10 02:47:16;;;;;;;;;;;;;;;24.25;41.90;101525.53;4993690;28;96513;-91
2021/06/10 02:49:51;;;;;;;;;;;;;;;24.10;42.15;101526.72;4985953;28;97276;-91
2021/06/10 02:55:18;;;;;;;;;;;;;;;24.93;39.53;101505.53;4986668;28;96643;-91
2021/06/10 03:00:35;;;;;;;;;;;;;;;25.23;39.40;101505.63;4974900;28;96935;-90
2021/06/10 03:03:34;;;;;;;;;;;;;;;24.96;40.20;101511.53;4994831;28;97486;-90
2021/06/10 03:06:27;;;;;;;;;;;;;;;25.12;40.24;101507.53;4996084;28;96481;-92
2021/06/10 03:08:55;;;;;;;;;;;;;;;24.88;40.32;101507.72;4982157;28;96525;-90
2021/06/10 03:11:31;;;;;;;;;;;;;;;25.00;40.04;101510.31;4987818;28;96968;-90
2021/06/10 03:14:02;;;;;;;;;;;;;;;24.94;40.37;101510.78;4997285;28;98516;-91
2021/06/10 03:16:28;;;;;;;;;;;;;;;25.15;40.09;101515.38;4980918;28;96724;-91
2021/06/10 03:18:59;;;;;;;;;;;;;;;25.23;40.34;101515.59;4983233;28;95988;-92
2021/06/10 03:21:27;;;;;;;;;;;;;;;25.13;40.67;101522.78;4980596;28;100606;-93
2021/06/10 03:24:03;;;;;;;;;;;;;;;24.75;41.64;101523.22;4979115;28;96947;-91
2021/06/10 03:29:43;;;;;;;;;;;;;;;23.33;44.45;101515.66;4986620;28;96713;-93
2021/06/10 03:32:13;;;;;;;;;;;;;;;23.92;43.03;101528.19;4957310;28;98820;-90
2021/06/10 03:34:40;;;;;;;;;;;;;;;24.12;42.79;101517.53;4975290;28;98064;-90
2021/06/10 03:37:07;;;;;;;;;;;;;;;24.40;42.11;101529.69;4956225;28;96952;-89
2021/06/10 03:39:33;;;;;;;;;;;;;;;24.37;41.88;101534.47;4985669;28;96719;-91
2021/06/10 03:42:00;;;;;;;;;;;;;;;24.69;41.27;101523.72;4985959;28;96721;-91
2021/06/10 03:44:28;;;;;;;;;;;;;;;24.45;41.69;101522.06;4984920;28;99290;-92
2021/06/10 03:46:57;;;;;;;;;;;;;;;24.14;41.71;101530.91;4971005;28;96594;-90
2021/06/10 03:49:29;;;;;;;;;;;;;;;24.26;41.25;101529.09;4982791;28;96856;-90
2021/06/10 03:51:56;;;;;;;;;;;;;;;24.34;41.53;101532.03;4981644;28;99443;-89
2021/06/10 03:54:26;;;;;;;;;;;;;;;24.65;40.22;101531.25;4987149;28;96941;-88
2021/06/10 03:56:52;;;;;;;;;;;;;;;24.57;40.55;101525.59;4995508;28;96304;-88
2021/06/10 03:59:18;;;;;;;;;;;;;;;24.48;40.48;101523.69;4997482;28;96502;-90
2021/06/10 04:01:44;;;;;;;;;;;;;;;24.62;40.37;101528.78;4990183;28;100507;-88
2021/06/10 04:04:10;;;;;;;;;;;;;;;24.37;40.71;101524.53;4986927;28;99919;-91
2021/06/10 04:06:38;;;;;;;;;;;;;;;24.32;41.26;101529.47;4997369;28;96198;-90
2021/06/10 04:09:06;;;;;;;;;;;;;;;24.00;41.80;101523.91;4997742;28;96441;-90
2021/06/10 04:14:13;;;;;;;;;;;;;;;24.50;40.53;101536.06;4984163;28;96343;-91
2021/06/10 04:16:41;;;;;;;;;;;;;;;24.41;40.54;101531.44;4997131;28;96527;-91
2021/06/10 04:19:08;;;;;;;;;;;;;;;24.69;39.89;101535.41;4994927;28;96030;-87
2021/06/10 04:21:37;;;;;;;;;;;;;;;24.55;39.85;101533.84;4983600;28;99010;-86
2021/06/10 04:24:18;;;;;;;;;;;;;;;24.42;40.23;101526.84;4995468;28;96971;-91
2021/06/10 04:26:45;;;;;;;;;;;;;;;24.73;39.45;101526.09;4993833;28;96082;-91
2021/06/10 04:31:52;;;;;;;;;;;;;;;23.47;42.23;101538.00;4983305;28;98882;-88
2021/06/10 04:34:18;;;;;;;;;;;;;;;24.29;40.81;101531.53;4983014;28;99581;-90
2021/06/10 04:36:46;;;;;;;;;;;;;;;24.62;39.91;101532.34;4991212;28;95879;-85
2021/06/10 04:39:13;;;;;;;;;;;;;;;24.89;39.32;101541.88;4993091;28;96047;-91
2021/06/10 04:41:40;;;;;;;;;;;;;;;24.76;39.62;101542.03;4997817;28;96395;-93
2021/06/10 04:44:08;;;;;;;;;;;;;;;25.48;38.07;101539.56;4995461;28;99159;-92
2021/06/10 04:46:35;;;;;;;;;;;;;;;26.13;37.27;101538.41;4967068;28;96779;-90
2021/06/10 04:49:06;;;;;;;;;;;;;;;25.76;37.43;101538.94;4992837;28;95958;-92
2021/06/10 04:51:36;;;;;;;;;;;;;;;25.55;38.04;101545.31;4997892;28;99564;-92
2021/06/10 04:54:14;;;;;;;;;;;;;;;25.52;38.16;101538.34;4994152;28;99601;-91
2021/06/10 04:56:43;;;;;;;;;;;;;;;26.11;37.02;101533.16;4995542;28;96335;-91
2021/06/10 04:59:17;;;;;;;;;;;;;;;26.09;36.72;101529.72;4993873;28;96052;-91
2021/06/10 05:01:46;;;;;;;;;;;;;;;25.70;37.87;101533.19;4992659;28;97023;-93
2021/06/10 05:04:12;;;;;;;;;;;;;;;25.89;37.62;101527.03;4990486;28;96990;-89
2021/06/10 05:06:39;;;;;;;;;;;;;;;25.98;37.64;101528.94;4992407;28;96636;-87
2021/06/10 05:09:07;;;;;;;;;;;;;;;26.21;37.08;101527.75;4997340;28;96032;-91
2021/06/10 05:11:35;;;;;;;;;;;;;;;26.13;36.56;101524.88;4996719;28;98390;-91
2021/06/10 05:14:00;;;;;;;;;;;;;;;26.79;35.13;101527.94;4985171;28;98015;-89
2021/06/10 05:16:28;;;;;;;;;;;;;;;26.51;35.67;101527.78;4986282;28;96632;-89
2021/06/10 05:18:54;;;;;;;;;;;;;;;25.70;37.05;101534.06;4993837;28;96683;-91
2021/06/10 05:24:02;;;;;;;;;;;;;;;26.87;35.38;101534.41;4981297;28;96779;-89
2021/06/10 05:26:28;;;;;;;;;;;;;;;26.75;35.47;101535.53;4979291;28;96778;-86
2021/06/10 05:28:56;;;;;;;;;;;;;;;26.75;35.50;101532.81;4982679;28;97109;-86
2021/06/10 05:31:24;;;;;;;;;;;;;;;27.31;34.58;101524.88;4978489;28;99330;-87
2021/06/10 05:33:56;;;;;;;;;;;;;;;27.12;34.68;101533.00;4970919;28;99291;-87
2021/06/10 05:36:22;;;;;;;;;;;;;;;26.65;35.71;101536.50;4982289;28;96940;-88
2021/06/10 05:38:49;;;;;;;;;;;;;;;27.05;34.63;101531.88;4983587;28;96738;-92
2021/06/10 05:41:24;;;;;;;;;;;;;;;27.06;34.85;101533.59;4945369;28;98693;-91
2021/06/10 05:43:50;;;;;;;;;;;;;;;27.00;34.90;101525.16;4968497;28;99905;-88
2021/06/10 05:46:17;;;;;;;;;;;;;;;26.82;35.31;101536.69;4990746;28;96660;-92
2021/06/10 05:48:50;;;;;;;;;;;;;;;27.27;34.53;101536.16;4971440;28;97508;-90
2021/06/10 05:51:17;;;;;;;;;;;;;;;27.65;33.92;101538.00;4988520;28;97714;-92
2021/06/10 05:53:45;;;;;;;;;;;;;;;27.76;33.84;101532.44;4988346;28;98490;-90
2021/06/10 05:58:53;;;;;;;;;;;;;;;28.27;33.14;101539.28;4994953;28;96541;-89
2021/06/10 06:01:21;;;;;;;;;;;;;;;28.35;32.95;101542.13;4996358;28;98517;-91
2021/06/10 06:03:47;;;;;;;;;;;;;;;28.36;32.72;101543.81;4992987;28;96994;-90
2021/06/10 06:06:15;;;;;;;;;;;;;;;28.06;32.75;101545.78;4989156;28;96444;-90
2021/06/10 06:08:43;;;;;;;;;;;;;;;28.76;31.67;101540.75;4959668;28;96502;-87
2021/06/10 06:11:10;;;;;;;;;;;;;;;27.83;33.43;101538.97;4982988;28;98216;-89
2021/06/10 06:13:45;;;;;;;;;;;;;;;28.22;32.73;101536.19;4957169;28;98686;-88
2021/06/10 06:16:13;;;;;;;;;;;;;;;28.74;31.42;101542.75;4984965;28;96683;-87
2021/06/10 06:18:40;;;;;;;;;;;;;;;27.98;32.59;101540.22;4978738;28;96978;-88
2021/06/10 06:21:12;;;;;;;;;;;;;;;27.97;32.52;101543.06;4984890;28;99266;-90
2021/06/10 06:23:45;;;;;;;;;;;;;;;27.54;33.54;101546.31;4980214;28;101929;-88
2021/06/10 06:26:14;;;;;;;;;;;;;;;27.74;33.30;101548.00;4993580;28;96733;-89
2021/06/10 06:28:41;;;;;;;;;;;;;;;28.75;31.57;101547.22;4978292;28;96546;-89
2021/06/10 06:31:09;;;;;;;;;;;;;;;28.57;31.99;101551.72;4990275;28;100073;-89
2021/06/10 06:33:38;;;;;;;;;;;;;;;28.72;31.46;101555.66;4979833;28;96714;-88
2021/06/10 06:36:04;;;;;;;;;;;;;;;29.03;31.02;101554.31;4991068;28;96721;-90
2021/06/10 06:38:33;;;;;;;;;;;;;;;28.78;31.57;101563.22;4992841;28;95970;-90
2021/06/10 06:41:05;;;;;;;;;;;;;;;29.41;29.87;101561.34;4996686;28;101475;-90
2021/06/10 06:46:43;;;;;;;;;;;;;;;29.36;30.23;101566.41;4977102;28;97405;-88
2021/06/10 06:49:16;;;;;;;;;;;;;;;28.73;31.11;101568.25;4988515;28;96024;-89
2021/06/10 06:51:48;;;;;;;;;;;;;;;28.76;31.25;101563.38;4987667;28;99142;-91
2021/06/10 06:57:02;;;;;;;;;;;;;;;28.95;31.32;101567.81;4984493;28;97670;-89
2021/06/10 06:59:31;;;;;;;;;;;;;;;28.87;31.62;101568.63;4983892;28;95994;-89
2021/06/10 07:18:02;;;;;;;;;;;;;;;29.23;30.58;101577.66;4985832;28;96570;-90
2021/06/10 07:20:35;;;;;;;;;;;;;;;29.06;30.38;101577.66;4985388;28;96510;-89
2021/06/10 07:28:24;;;;;;;;;;;;;;;28.88;30.06;101580.38;4987568;28;96678;-89
2021/06/10 07:41:58;;;;;;;;;;;;;;;29.22;29.32;101588.69;4983644;28;96787;-90
2021/06/10 07:44:33;;;;;;;;;;;;;;;29.42;29.68;101590.28;4992099;28;98575;-91
2021/06/10 07:47:01;;;;;;;;;;;;;;;29.18;29.42;101584.56;4988566;28;98235;-88
2021/06/10 07:52:33;;;;;;;;;;;;;;;29.57;28.54;101599.63;4990335;28;97692;-88
2021/06/10 07:55:22;;;;;;;;;;;;;;;29.38;29.10;101607.09;4993866;28;100107;-89
2021/06/10 07:58:04;;;;;;;;;;;;;;;30.04;28.29;101604.78;4982500;28;98680;-89
2021/06/10 08:00:50;;;;;;;;;;;;;;;29.61;29.25;101600.13;4991273;28;96321;-86
2021/06/10 08:03:28;;;;;;;;;;;;;;;29.94;28.51;101598.56;4986876;28;96731;-86
2021/06/10 08:05:59;;;;;;;;;;;;;;;29.01;30.09;101599.88;4983140;28;99291;-87
2021/06/10 08:08:36;;;;;;;;;;;;;;;29.81;29.25;101600.81;4968145;28;96875;-87
2021/06/10 08:24:53;;;;;;;;;;;;;;;31.03;27.35;101584.13;5004975;28;97292;-86
2021/06/10 08:30:11;;;;;;;;;;;;;;;30.26;28.38;101596.03;5003327;28;99691;-88
2021/06/10 08:32:38;;;;;;;;;;;;;;;30.09;28.73;101597.81;5011462;28;96915;-88
2021/06/10 08:35:04;;;;;;;;;;;;;;;29.60;29.09;101606.63;4985228;28;96051;-89
2021/06/10 09:15:15;;;;;;;;;;;;;;;29.57;29.10;101596.03;4994286;28;96896;-88
2021/06/10 09:17:54;;;;;;;;;;;;;;;29.59;29.18;101600.31;4930500;28;96876;-87
2021/06/10 09:20:46;;;;;;;;;;;;;;;29.86;28.64;101596.63;4992836;28;99256;-86
2021/06/10 09:29:06;;;;;;;;;;;;;;;30.28;27.85;101594.00;5015287;22;98038;-86
2021/06/10 09:34:35;;;;;;;;;;;;;;;29.41;28.91;101595.88;5012677;28;98942;-88
2021/06/10 09:39:49;;;;;;;;;;;;;;;28.95;29.79;101589.59;4990080;28;95992;-88
2021/06/10 09:47:51;;;;;;;;;;;;;;;28.95;29.60;101596.94;4989068;28;97034;-85
2021/06/10 09:50:37;;;;;;;;;;;;;;;29.77;28.50;101588.53;4983978;28;96878;-85
2021/06/10 09:53:09;;;;;;;;;;;;;;;30.59;27.03;101583.44;4978029;28;98159;-86
2021/06/10 09:55:42;;;;;;;;;;;;;;;30.60;27.26;101584.31;4976968;28;101542;-86
2021/06/10 09:58:24;;;;;;;;;;;;;;;30.74;26.74;101584.53;4983643;28;97256;-86
2021/06/10 10:01:01;;;;;;;;;;;;;;;30.40;26.87;101581.81;4997858;28;96873;-87
2021/06/10 10:06:17;;;;;;;;;;;;;;;29.42;28.31;101581.25;4979885;28;98431;-86
2021/06/10 10:08:47;;;;;;;;;;;;;;;29.64;28.21;101591.66;4996095;28;96783;-85
2021/06/10 10:11:15;;;;;;;;;;;;;;;29.56;28.31;101595.19;4993979;28;97022;-85
2021/06/10 10:13:45;;;;;;;;;;;;;;;29.43;28.57;101593.84;4992271;28;101070;-84
2021/06/10 10:16:12;;;;;;;;;;;;;;;29.40;28.37;101589.59;4981573;28;97713;-85
2021/06/10 10:18:38;;;;;;;;;;;;;;;29.96;28.10;101588.38;4990724;28;96748;-86
2021/06/10 10:21:06;;;;;;;;;;;;;;;30.12;27.61;101583.03;5008235;28;95955;-86
2021/06/10 10:23:34;;;;;;;;;;;;;;;30.43;27.53;101589.66;4994544;28;100289;-86
2021/06/10 10:26:07;;;;;;;;;;;;;;;30.13;27.55;101586.63;4998735;28;96800;-86
2021/06/10 10:28:42;;;;;;;;;;;;;;;29.61;27.97;101587.38;4996670;28;96545;-87
2021/06/10 10:31:11;;;;;;;;;;;;;;;29.61;28.01;101586.53;4985345;28;95940;-86
2021/06/10 10:33:43;;;;;;;;;;;;;;;30.14;27.34;101580.13;4982988;28;98322;-87
2021/06/10 10:36:09;;;;;;;;;;;;;;;30.06;27.72;101580.94;4999584;28;97060;-86
2021/06/10 10:38:36;;;;;;;;;;;;;;;29.18;28.71;101579.13;4987502;28;96576;-88
2021/06/10 10:41:06;;;;;;;;;;;;;;;28.87;29.17;101578.66;4992143;28;95961;-86
2021/06/10 10:43:33;;;;;;;;;;;;;;;29.76;27.74;101575.91;4982053;28;100660;-87
2021/06/10 10:46:06;;;;;;;;;;;;;;;30.02;27.01;101582.28;5006797;28;98792;-87
2021/06/10 10:48:33;;;;;;;;;;;;;;;30.39;26.40;101571.09;4992826;28;97228;-88
2021/06/10 10:51:21;;;;;;;;;;;;;;;30.61;25.91;101575.09;4988878;28;96721;-86
2021/06/10 10:53:53;;;;;;;;;;;;;;;29.88;27.00;101571.91;5004201;28;100685;-86
2021/06/10 10:56:34;;;;;;;;;;;;;;;30.42;26.24;101566.16;4995864;28;99553;-89
2021/06/10 10:59:14;;;;;;;;;;;;;;;30.45;25.51;101571.28;4995984;28;96762;-86
2021/06/10 11:01:43;;;;;;;;;;;;;;;30.78;24.93;101561.38;5002159;28;96669;-85
2021/06/10 11:04:41;;;;;;;;;;;;;;;31.03;24.78;101562.28;5001126;28;96999;-87
2021/06/10 11:10:15;;;;;;;;;;;;;;;30.47;26.35;101561.03;4989797;28;96745;-89
2021/06/10 11:12:59;;;;;;;;;;;;;;;30.72;25.63;101562.00;4993789;28;96117;-86
2021/06/10 11:15:50;;;;;;;;;;;;;;;30.70;25.61;101557.75;4989156;28;99125;-86
2021/06/10 11:30:54;;;;;;;;;;;;;;;29.86;27.36;101544.00;4985956;28;97665;-88
2021/06/10 11:36:28;;;;;;;;;;;;;;;30.70;26.34;101523.16;4987334;28;96542;-90
2021/06/10 11:39:07;;;;;;;;;;;;;;;30.52;26.57;101529.75;4987417;28;99269;-90
2021/06/10 11:49:42;;;;;;;;;;;;;;;31.25;24.62;101522.56;5177405;22;99866;-89
2021/06/10 11:55:25;;;;;;;;;;;;;;;31.79;22.38;101512.84;4998761;28;97698;-87
2021/06/10 11:58:26;;;;;;;;;;;;;;;31.39;23.09;101510.97;5005609;28;96629;-85
2021/06/10 12:07:05;;;;;;;;;;;;;;;30.62;24.17;101506.75;4984257;28;96653;-90
2021/06/10 12:12:34;;;;;;;;;;;;;;;31.60;22.69;101513.22;5011909;28;98411;-88
2021/06/10 12:20:51;;;;;;;;;;;;;;;31.45;19.76;101504.81;5002697;28;96747;-86
2021/06/10 12:23:21;;;;;;;;;;;;;;;30.98;19.35;101496.44;5003636;28;100110;-87
2021/06/10 12:28:48;;;;;;;;;;;;;;;32.24;19.87;101489.47;4998445;28;97202;-87
2021/06/10 12:31:18;;;;;;;;;;;;;;;32.23;21.14;101499.56;4992869;28;96809;-87
2021/06/10 12:33:46;;;;;;;;;;;;;;;32.36;21.31;101490.81;4999948;28;100059;-88
2021/06/10 12:42:17;;;;;;;;;;;;;;;32.06;20.07;101506.97;4990531;28;96697;-88
2021/06/10 12:45:00;;;;;;;;;;;;;;;32.61;19.87;101507.94;4990688;28;97925;-88
2021/06/10 12:47:36;;;;;;;;;;;;;;;31.80;20.52;101505.50;4994756;28;101042;-90
2021/06/10 12:50:24;;;;;;;;;;;;;;;32.31;20.24;101502.28;4989491;28;96870;-88
2021/06/10 12:52:50;;;;;;;;;;;;;;;32.00;21.15;101488.53;4999175;28;96740;-89
2021/06/10 12:55:34;;;;;;;;;;;;;;;31.71;19.13;101493.72;5005332;28;99196;-85
2021/06/10 12:58:02;;;;;;;;;;;;;;;32.42;19.77;101487.38;4988446;28;97690;-88
2021/06/10 13:00:32;;;;;;;;;;;;;;;32.12;21.29;101497.19;5001246;28;96837;-86
2021/06/10 13:03:14;;;;;;;;;;;;;;;32.25;21.16;101496.66;5009087;28;98127;-90
2021/06/10 13:08:52;;;;;;;;;;;;;;;31.98;20.70;101497.91;5004553;28;97186;-89
2021/06/10 13:22:21;;;;;;;;;;;;;;;34.72;18.74;101473.88;5264924;22;98331;-83
2021/06/10 13:24:59;;;;;;;;;;;;;;;34.77;18.64;101476.91;5004450;28;96176;-84
2021/06/10 13:27:30;;;;;;;;;;;;;;;34.71;18.71;101469.44;4993782;28;97759;-89
2021/06/10 13:30:05;;;;;;;;;;;;;;;34.83;18.51;101476.09;5018108;28;96816;-89
2021/06/10 13:32:59;;;;;;;;;;;;;;;35.68;17.41;101469.69;5017467;28;96456;-92
2021/06/10 13:54:51;;;;;;;;;;;;;;;38.33;13.95;101447.88;4998054;28;96058;-85
2021/06/10 14:00:10;;;;;;;;;;;;;;;37.43;14.57;101444.03;5302322;22;100164;-88
2021/06/10 14:02:52;;;;;;;;;;;;;;;39.57;14.07;101448.91;4987078;28;97204;-88
2021/06/10 14:05:42;;;;;;;;;;;;;;;37.37;14.83;101451.25;4996241;28;96385;-88
2021/06/10 14:08:48;;;;;;;;;;;;;;;40.63;12.67;101442.13;4980405;28;96710;-91
2021/06/10 14:11:23;;;;;;;;;;;;;;;41.54;11.92;101434.25;4977177;28;99104;-88
2021/06/10 14:13:53;;;;;;;;;;;;;;;39.91;12.67;101441.13;5001349;28;100232;-85
2021/06/10 14:16:23;;;;;;;;;;;;;;;42.57;11.25;101443.66;4982186;28;96734;-87
2021/06/10 14:18:50;;;;;;;;;;;;;;;43.92;10.39;101435.06;4978875;28;98474;-87
2021/06/10 14:21:27;;;;;;;;;;;;;;;44.53;9.40;101433.03;4974026;28;99503;-87
2021/06/10 14:23:54;;;;;;;;;;;;;;;43.55;10.24;101430.13;4972673;28;97842;-87
2021/06/10 14:26:25;;;;;;;;;;;;;;;43.57;10.07;101436.28;4993688;28;96637;-90
2021/06/10 14:29:02;;;;;;;;;;;;;;;44.00;10.26;101423.50;4981998;28;96952;-87
2021/06/10 14:34:13;;;;;;;;;;;;;;;43.41;10.59;101425.97;4978953;28;97089;-88
2021/06/10 14:36:40;;;;;;;;;;;;;;;45.44;9.77;101429.09;4973179;28;97252;-87
2021/06/10 14:39:18;;;;;;;;;;;;;;;;;;;;;
2021/06/10 14:41:50;;;;;;;;;;;;;;;44.71;9.81;101421.53;4972761;28;124388;-87
2021/06/10 14:47:23;;;;;;;;;;;;;;;44.23;10.03;101414.03;4966691;28;98107;-88
2021/06/10 14:50:09;;;;;;;;;;;;;;;44.29;10.43;101422.19;5351330;22;99272;-83
2021/06/10 14:53:14;;;;;;;;;;;;;;;42.81;11.40;101412.75;4974025;28;98340;-84
2021/06/10 14:56:07;;;;;;;;;;;;;;;43.08;11.40;101420.41;4965610;28;98028;-90
2021/06/10 15:01:56;;;;;;;;;;;;;;;43.94;11.26;101405.88;4968147;28;96891;-91
2021/06/10 15:04:49;;;;;;;;;;;;;;;44.14;10.91;101405.28;4988045;28;99337;-89
2021/06/10 15:09:56;;;;;;;;;;;;;;;46.10;9.87;101409.09;4972810;28;96582;-91
2021/06/10 15:12:49;;;;;;;;;;;;;;;44.77;10.86;101403.78;4980154;28;96977;-91
2021/06/10 15:31:56;;;;;;;;;;;;;;;35.04;18.96;101401.13;4989484;28;96684;-89
2021/06/10 15:34:28;;;;;;;;;;;;;;;35.65;19.05;101387.59;4984920;28;96776;-90
2021/06/10 15:36:54;;;;;;;;;;;;;;;35.52;18.21;101391.97;4989121;28;97747;-91
2021/06/10 15:53:12;;;;;;;;;;;;;;;34.57;19.77;101404.44;4989338;28;96755;-87
2021/06/10 15:55:39;;;;;;;;;;;;;;;33.97;20.38;101405.59;4999250;28;96848;-91
2021/06/10 15:58:06;;;;;;;;;;;;;;;33.87;20.80;101396.84;4993799;28;98276;-90
2021/06/10 16:00:56;;;;;;;;;;;;;;;34.40;20.07;101393.69;5037238;22;98164;-90
2021/06/10 16:03:24;;;;;;;;;;;;;;;35.06;19.18;101394.34;4975769;28;97019;-89
2021/06/10 16:06:05;;;;;;;;;;;;;;;34.94;19.65;101390.47;4981889;28;96619;-91
2021/06/10 16:14:44;;;;;;;;;;;;;;;34.34;20.20;101391.72;4968161;28;96762;-91
2021/06/10 16:19:58;;;;;;;;;;;;;;;32.95;21.37;101400.84;4980418;28;96864;-91
2021/06/10 16:22:29;;;;;;;;;;;;;;;32.85;21.95;101395.59;4981822;28;96953;-88
2021/06/10 16:25:04;;;;;;;;;;;;;;;33.61;21.07;101381.66;4981151;28;96365;-91
2021/06/10 16:33:18;;;;;;;;;;;;;;;32.91;21.84;101380.34;4986586;28;98809;-91
2021/06/10 16:35:45;;;;;;;;;;;;;;;32.56;22.02;101385.34;4989366;28;96821;-92
2021/06/10 16:38:11;;;;;;;;;;;;;;;33.28;21.17;101380.34;5001867;28;96063;-85
2021/06/10 16:40:48;;;;;;;;;;;;;;;33.44;20.97;101374.69;5000701;28;96878;-90
2021/06/10 16:46:09;;;;;;;;;;;;;;;32.81;21.57;101375.97;4985716;28;96325;-91
2021/06/10 16:49:10;;;;;;;;;;;;;;;32.67;21.74;101379.50;4999669;28;96078;-84
2021/06/10 16:51:58;;;;;;;;;;;;;;;32.99;21.54;101375.66;4970762;28;99257;-90
2021/06/10 17:06:10;;;;;;;;;;;;;;;31.70;22.92;101380.03;4992079;28;95984;-84
2021/06/10 17:08:35;;;;;;;;;;;;;;;32.33;22.17;101384.50;4973237;28;97020;-83
2021/06/10 17:11:16;;;;;;;;;;;;;;;31.65;22.52;101371.47;4970562;28;98899;-81
2021/06/10 17:13:45;;;;;;;;;;;;;;;31.17;23.30;101378.75;4971663;28;101734;-83
2021/06/10 17:16:11;;;;;;;;;;;;;;;31.42;22.92;101373.25;4976931;28;98091;-81
2021/06/10 17:18:37;;;;;;;;;;;;;;;31.54;22.84;101377.31;4969200;28;96906;-82
2021/06/10 17:21:03;;;;;;;;;;;;;;;32.05;22.03;101375.91;4980584;28;97119;-82
2021/06/10 17:23:29;;;;;;;;;;;;;;;31.80;22.11;101377.06;4980282;28;98306;-81
2021/06/10 17:25:56;;;;;;;;;;;;;;;31.85;21.96;101375.50;4984205;28;101589;-82
2021/06/10 17:28:22;;;;;;;;;;;;;;;31.41;23.12;101379.72;4987471;28;97392;-82
2021/06/10 17:30:49;;;;;;;;;;;;;;;31.70;22.74;101377.28;4980061;28;97801;-82
2021/06/10 17:33:15;;;;;;;;;;;;;;;31.31;22.63;101376.34;4981458;28;100230;-82
2021/06/10 17:35:41;;;;;;;;;;;;;;;30.87;23.25;101377.56;4977977;28;100410;-80
2021/06/10 17:38:07;;;;;;;;;;;;;;;30.63;23.12;101377.56;4975609;28;96988;-82
2021/06/10 17:40:33;;;;;;;;;;;;;;;30.29;23.79;101384.97;4978422;28;97029;-82
2021/06/10 17:42:58;;;;;;;;;;;;;;;30.45;23.49;101380.41;4974699;28;98807;-82
2021/06/10 17:45:24;;;;;;;;;;;;;;;30.34;23.33;101377.13;4982152;28;98236;-82
2021/06/10 17:47:53;;;;;;;;;;;;;;;30.25;23.35;101370.81;4974607;28;98697;-82
2021/06/10 17:50:19;;;;;;;;;;;;;;;30.62;23.36;101369.53;4976984;28;97536;-81
2021/06/10 17:52:45;;;;;;;;;;;;;;;30.43;23.15;101376.13;4974807;28;99173;-82
2021/06/10 17:55:12;;;;;;;;;;;;;;;30.62;22.90;101370.38;4975024;28;98891;-82
2021/06/10 17:57:37;;;;;;;;;;;;;;;30.91;22.67;101371.78;4968287;28;97224;-82